createdAt,value
2023-04-02T00:01:24.070Z,5.59
2023-04-02T00:03:50.551Z,5.54
2023-04-02T00:06:26.341Z,5.61
2023-04-02T00:08:52.913Z,5.61
2023-04-02T00:11:31.078Z,5.48
2023-04-02T00:14:01.477Z,5.56
2023-04-02T00:16:29.013Z,5.45
2023-04-02T00:19:01.412Z,5.47
2023-04-02T00:21:30.891Z,5.45
2023-04-02T00:24:00.869Z,5.49
2023-04-02T00:26:37.168Z,5.57
2023-04-02T00:29:07.722Z,5.43
2023-04-02T00:31:37.760Z,5.42
2023-04-02T00:34:07.018Z,5.39
2023-04-02T00:36:34.651Z,5.42
2023-04-02T00:39:04.273Z,5.52
2023-04-02T00:41:32.413Z,5.42
2023-04-02T00:43:59.539Z,5.43
2023-04-02T00:46:32.901Z,5.43
2023-04-02T00:49:12.586Z,5.44
2023-04-02T00:51:44.434Z,5.39
2023-04-02T00:54:13.057Z,5.34
2023-04-02T00:56:46.177Z,5.39
2023-04-02T00:59:42.984Z,5.26
2023-04-02T01:02:15.603Z,5.30
2023-04-02T01:04:42.129Z,5.28
2023-04-02T01:07:11.132Z,5.38
2023-04-02T01:10:18.129Z,5.36
2023-04-02T01:12:56.013Z,5.28
2023-04-02T01:15:32.596Z,5.37
2023-04-02T01:18:33.262Z,5.37
2023-04-02T01:21:08.193Z,5.36
2023-04-02T01:23:57.784Z,5.35
2023-04-02T01:26:34.915Z,5.35
2023-04-02T01:29:12.033Z,5.32
2023-04-02T01:31:39.572Z,5.45
2023-04-02T01:34:09.777Z,5.34
2023-04-02T01:36:54.784Z,5.33
2023-04-02T01:39:31.133Z,5.42
2023-04-02T01:41:57.643Z,5.30
2023-04-02T01:44:32.210Z,5.28
2023-04-02T01:46:59.428Z,5.34
2023-04-02T01:49:26.324Z,5.28
2023-04-02T01:51:55.255Z,5.32
2023-04-02T01:54:22.959Z,5.26
2023-04-02T01:56:51.597Z,5.29
2023-04-02T01:59:21.342Z,5.31
2023-04-02T02:02:14.689Z,5.28
2023-04-02T02:04:41.574Z,5.25
2023-04-02T02:07:15.726Z,5.23
2023-04-02T02:09:43.501Z,5.22
2023-04-02T02:12:13.977Z,5.22
2023-04-02T02:14:46.854Z,5.24
2023-04-02T02:17:27.457Z,5.12
2023-04-02T02:19:59.583Z,5.13
2023-04-02T02:22:36.060Z,5.14
2023-04-02T02:25:06.603Z,5.13
2023-04-02T02:27:42.990Z,5.10
2023-04-02T02:30:21.020Z,5.13
2023-04-02T02:33:19.272Z,5.14
2023-04-02T02:35:59.735Z,5.13
2023-04-02T02:38:44.297Z,5.12
2023-04-02T02:41:20.910Z,5.08
2023-04-02T02:43:59.591Z,5.11
2023-04-02T02:46:29.150Z,5.18
2023-04-02T02:48:57.655Z,5.16
2023-04-02T02:51:42.365Z,5.14
2023-04-02T02:54:09.058Z,4.99
2023-04-02T02:56:42.133Z,5.09
2023-04-02T02:59:10.873Z,4.98
2023-04-02T03:01:38.283Z,5.06
2023-04-02T03:04:05.176Z,5.14
2023-04-02T03:06:31.810Z,5.02
2023-04-02T03:09:16.084Z,5.04
2023-04-02T03:12:09.913Z,5.12
2023-04-02T03:15:05.587Z,5.07
2023-04-02T03:18:13.443Z,5.16
2023-04-02T03:20:55.524Z,5.07
2023-04-02T03:23:27.334Z,5.15
2023-04-02T03:26:04.794Z,5.11
2023-04-02T03:28:34.517Z,5.20
2023-04-02T03:31:08.258Z,5.17
2023-04-02T03:33:44.332Z,5.11
2023-04-02T03:36:32.075Z,5.05
2023-04-02T03:39:12.176Z,5.03
2023-04-02T03:41:51.850Z,5.16
2023-04-02T03:45:00.115Z,5.21
2023-04-02T03:47:36.629Z,5.26
2023-04-02T03:50:07.490Z,5.24
2023-04-02T03:52:37.300Z,5.25
2023-04-02T03:55:14.362Z,5.28
2023-04-02T03:57:47.930Z,5.31
2023-04-02T04:00:22.648Z,5.28
2023-04-02T04:03:02.455Z,5.37
2023-04-02T04:05:36.223Z,5.35
2023-04-02T04:08:07.188Z,5.36
2023-04-02T04:10:35.045Z,5.35
2023-04-02T04:13:08.641Z,5.40
2023-04-02T04:15:54.910Z,5.39
2023-04-02T04:18:33.571Z,5.46
2023-04-02T04:21:03.444Z,5.61
2023-04-02T04:23:38.381Z,5.72
2023-04-02T04:26:21.219Z,5.71
2023-04-02T04:29:01.274Z,5.71
2023-04-02T04:31:35.078Z,5.61
2023-04-02T04:34:08.614Z,5.60
2023-04-02T04:36:51.026Z,5.63
2023-04-02T04:39:26.977Z,5.60
2023-04-02T04:41:55.370Z,5.44
2023-04-02T04:44:35.513Z,5.46
2023-04-02T04:47:15.317Z,5.48
2023-04-02T04:49:58.241Z,5.46
2023-04-02T04:52:38.457Z,5.49
2023-04-02T04:55:26.920Z,5.52
2023-04-02T04:58:25.785Z,5.40
2023-04-02T05:01:07.507Z,5.49
2023-04-02T05:03:34.081Z,5.39
2023-04-02T05:06:39.776Z,5.40
2023-04-02T05:09:20.125Z,5.53
2023-04-02T05:11:55.369Z,5.46
2023-04-02T05:14:33.635Z,5.43
2023-04-02T05:17:50.054Z,5.50
2023-04-02T05:20:27.454Z,5.56
2023-04-02T05:23:12.402Z,5.55
2023-04-02T05:25:52.170Z,5.66
2023-04-02T05:28:32.112Z,5.81
2023-04-02T05:31:06.897Z,5.90
2023-04-02T05:33:36.160Z,6.00
2023-04-02T05:36:09.548Z,6.06
2023-04-02T05:38:38.936Z,5.84
2023-04-02T05:41:27.894Z,5.81
2023-04-02T05:44:22.982Z,5.71
2023-04-02T05:46:57.628Z,5.58
2023-04-02T05:49:53.151Z,5.57
2023-04-02T05:52:28.071Z,5.62
2023-04-02T05:55:06.919Z,5.76
2023-04-02T05:57:47.093Z,5.77
2023-04-02T06:00:31.668Z,5.90
2023-04-02T06:03:05.006Z,5.94
2023-04-02T06:05:39.738Z,6.00
2023-04-02T06:08:11.860Z,5.82
2023-04-02T06:10:47.956Z,5.74
2023-04-02T06:13:18.970Z,5.84
2023-04-02T06:15:47.669Z,5.89
2023-04-02T06:18:24.898Z,6.04
2023-04-02T06:20:52.077Z,5.96
2023-04-02T06:23:42.051Z,5.78
2023-04-02T06:26:19.600Z,5.95
2023-04-02T06:29:04.017Z,6.01
2023-04-02T06:31:39.103Z,6.18
2023-04-02T06:34:11.285Z,6.34
2023-04-02T06:36:37.770Z,6.36
2023-04-02T06:39:18.145Z,6.57
2023-04-02T06:41:44.629Z,6.59
2023-04-02T06:44:21.549Z,6.60
2023-04-02T06:46:58.908Z,6.54
2023-04-02T06:49:31.479Z,6.45
2023-04-02T06:52:01.081Z,6.50
2023-04-02T06:54:27.596Z,6.68
2023-04-02T06:56:55.456Z,6.89
2023-04-02T06:59:23.018Z,6.80
2023-04-02T07:01:57.785Z,6.96
2023-04-02T07:04:25.238Z,7.06
2023-04-02T07:06:51.842Z,7.18
2023-04-02T07:09:19.168Z,7.54
2023-04-02T07:11:45.680Z,7.76
2023-04-02T07:14:13.281Z,8.17
2023-04-02T07:16:42.671Z,8.39
2023-04-02T07:19:18.689Z,8.94
2023-04-02T07:21:45.223Z,9.21
2023-04-02T07:24:11.819Z,8.87
2023-04-02T07:26:38.399Z,9.11
2023-04-02T07:29:08.753Z,8.99
2023-04-02T07:31:35.454Z,9.33
2023-04-02T07:34:02.101Z,9.31
2023-04-02T07:36:29.502Z,9.48
2023-04-02T07:38:56.022Z,9.45
2023-04-02T07:41:22.600Z,9.81
2023-04-02T07:43:49.171Z,10.31
2023-04-02T07:46:15.754Z,10.55
2023-04-02T07:48:43.569Z,11.18
2023-04-02T07:51:24.981Z,11.28
2023-04-02T07:53:52.237Z,11.28
2023-04-02T07:56:19.680Z,11.52
2023-04-02T07:58:46.725Z,11.49
2023-04-02T08:01:27.741Z,11.79
2023-04-02T08:03:56.668Z,11.61
2023-04-02T08:06:24.128Z,11.34
2023-04-02T08:08:50.994Z,11.97
2023-04-02T08:11:17.516Z,12.45
2023-04-02T08:13:44.453Z,12.49
2023-04-02T08:16:11.495Z,12.48
2023-04-02T08:18:38.643Z,12.11
2023-04-02T08:21:10.343Z,11.83
2023-04-02T08:23:37.397Z,11.35
2023-04-02T08:26:04.718Z,11.07
2023-04-02T08:28:31.281Z,11.63
2023-04-02T08:30:57.741Z,12.33
2023-04-02T08:33:24.334Z,12.43
2023-04-02T08:35:50.924Z,12.23
2023-04-02T08:38:19.287Z,12.16
2023-04-02T08:40:49.579Z,11.76
2023-04-02T08:43:18.749Z,11.52
2023-04-02T08:45:54.215Z,12.15
2023-04-02T08:48:20.891Z,12.71
2023-04-02T08:50:47.451Z,12.02
2023-04-02T08:53:19.420Z,12.12
2023-04-02T08:55:58.668Z,11.87
2023-04-02T08:58:39.815Z,12.23
2023-04-02T09:01:09.896Z,12.26
2023-04-02T09:03:42.669Z,12.02
2023-04-02T09:06:13.408Z,11.74
2023-04-02T09:08:43.901Z,11.71
2023-04-02T09:11:13.092Z,11.93
2023-04-02T09:13:45.720Z,11.93
2023-04-02T09:16:16.214Z,12.07
2023-04-02T09:18:44.835Z,12.19
2023-04-02T09:21:20.736Z,12.71
2023-04-02T09:23:47.920Z,13.34
2023-04-02T09:26:22.889Z,13.27
2023-04-02T09:28:59.591Z,13.60
2023-04-02T09:31:34.280Z,13.47
2023-04-02T09:34:00.776Z,14.46
2023-04-02T09:36:38.145Z,13.48
2023-04-02T09:39:12.109Z,12.95
2023-04-02T09:41:38.637Z,13.05
2023-04-02T09:44:34.658Z,13.23
2023-04-02T09:47:06.825Z,12.75
2023-04-02T09:49:36.817Z,12.68
2023-04-02T09:52:28.856Z,12.78
2023-04-02T09:55:07.557Z,12.83
2023-04-02T09:57:34.134Z,12.31
2023-04-02T10:00:30.663Z,12.71
2023-04-02T10:03:21.969Z,12.14
2023-04-02T10:05:49.092Z,12.44
2023-04-02T10:08:21.298Z,11.93
2023-04-02T10:10:53.465Z,12.21
2023-04-02T10:13:51.235Z,12.38
2023-04-02T10:16:27.267Z,12.80
2023-04-02T10:19:14.393Z,12.53
2023-04-02T10:21:43.286Z,12.10
2023-04-02T10:24:14.885Z,12.13
2023-04-02T10:27:06.010Z,12.45
2023-04-02T10:29:49.852Z,12.39
2023-04-02T10:32:35.297Z,12.28
2023-04-02T10:35:03.301Z,12.36
2023-04-02T10:37:32.851Z,12.17
2023-04-02T10:40:26.028Z,12.45
2023-04-02T10:43:30.614Z,12.31
2023-04-02T10:46:03.162Z,12.33
2023-04-02T10:48:56.835Z,12.38
2023-04-02T10:51:53.441Z,12.27
2023-04-02T10:54:19.900Z,12.13
2023-04-02T10:56:50.937Z,12.12
2023-04-02T10:59:30.044Z,11.85
2023-04-02T11:02:01.358Z,12.05
2023-04-02T11:04:33.212Z,12.18
2023-04-02T11:07:15.038Z,11.64
2023-04-02T11:09:45.239Z,11.91
2023-04-02T11:12:41.724Z,11.55
2023-04-02T11:15:17.088Z,12.06
2023-04-02T11:17:45.353Z,12.19
2023-04-02T11:20:48.879Z,12.08
2023-04-02T11:23:19.201Z,12.39
2023-04-02T11:25:46.550Z,12.52
2023-04-02T11:28:19.092Z,12.68
2023-04-02T11:30:48.532Z,12.69
2023-04-02T11:33:44.796Z,12.62
2023-04-02T11:36:49.946Z,12.56
2023-04-02T11:39:46.042Z,12.76
2023-04-02T11:42:18.306Z,12.46
2023-04-02T11:44:45.221Z,12.51
2023-04-02T11:47:21.801Z,12.39
2023-04-02T11:50:00.949Z,12.41
2023-04-02T11:52:37.647Z,12.71
2023-04-02T11:55:24.114Z,12.29
2023-04-02T11:58:15.127Z,12.74
2023-04-02T12:01:07.650Z,13.04
2023-04-02T12:03:52.714Z,13.23
2023-04-02T12:06:38.562Z,13.27
2023-04-02T12:09:23.200Z,13.03
2023-04-02T12:11:52.063Z,12.56
2023-04-02T12:14:37.777Z,12.67
2023-04-02T12:17:15.278Z,12.36
2023-04-02T12:19:47.807Z,12.21
2023-04-02T12:22:23.863Z,12.16
2023-04-02T12:24:51.248Z,12.13
2023-04-02T12:27:20.925Z,12.08
2023-04-02T12:29:47.390Z,12.14
2023-04-02T12:32:31.597Z,12.08
2023-04-02T12:34:58.986Z,12.12
2023-04-02T12:37:28.330Z,12.29
2023-04-02T12:39:58.638Z,11.91
2023-04-02T12:42:43.262Z,11.93
2023-04-02T12:45:30.889Z,12.08
2023-04-02T12:48:00.670Z,11.88
2023-04-02T12:50:27.254Z,11.72
2023-04-02T12:52:55.328Z,11.69
2023-04-02T12:55:24.659Z,11.89
2023-04-02T12:57:59.199Z,11.87
2023-04-02T13:00:25.640Z,11.69
2023-04-02T13:03:00.463Z,11.64
2023-04-02T13:05:46.810Z,11.40
2023-04-02T13:08:45.584Z,11.37
2023-04-02T13:11:12.110Z,11.49
2023-04-02T13:13:41.672Z,11.50
2023-04-02T13:16:17.227Z,11.49
2023-04-02T13:18:47.368Z,11.59
2023-04-02T13:21:16.804Z,11.75
2023-04-02T13:23:44.384Z,11.61
2023-04-02T13:26:22.955Z,11.65
2023-04-02T13:28:59.997Z,11.69
2023-04-02T13:31:27.068Z,11.72
2023-04-02T13:33:53.536Z,11.95
2023-04-02T13:36:20.948Z,11.94
2023-04-02T13:38:47.436Z,11.82
2023-04-02T13:41:36.690Z,11.87
2023-04-02T13:44:03.485Z,11.78
2023-04-02T13:46:32.476Z,11.89
2023-04-02T13:48:59.070Z,11.97
2023-04-02T13:51:47.294Z,11.72
2023-04-02T13:54:27.187Z,11.68
2023-04-02T13:56:55.881Z,11.76
2023-04-02T13:59:22.773Z,11.78
2023-04-02T14:01:51.594Z,11.70
2023-04-02T14:04:26.079Z,11.62
2023-04-02T14:07:14.346Z,11.82
2023-04-02T14:09:53.258Z,11.77
2023-04-02T14:12:47.621Z,11.78
2023-04-02T14:15:25.021Z,11.78
2023-04-02T14:18:31.360Z,11.71
2023-04-02T14:21:35.066Z,11.49
2023-04-02T14:24:10.480Z,11.44
2023-04-02T14:26:55.296Z,11.61
2023-04-02T14:29:30.532Z,11.52
2023-04-02T14:32:18.725Z,11.43
2023-04-02T14:35:03.078Z,11.54
2023-04-02T14:37:38.504Z,11.48
2023-04-02T14:40:27.197Z,11.43
2023-04-02T14:43:04.906Z,11.35
2023-04-02T14:45:58.568Z,11.41
2023-04-02T14:48:49.462Z,11.36
2023-04-02T14:51:24.809Z,11.27
2023-04-02T14:54:12.629Z,11.18
2023-04-02T14:56:49.407Z,11.15
2023-04-02T14:59:39.285Z,10.97
2023-04-02T15:02:30.264Z,11.01
2023-04-02T15:05:27.842Z,11.04
2023-04-02T15:08:07.512Z,10.93
2023-04-02T15:10:40.973Z,10.87
2023-04-02T15:13:21.334Z,10.86
2023-04-02T15:16:11.732Z,10.96
2023-04-02T15:18:38.428Z,10.95
2023-04-02T15:21:19.955Z,11.01
2023-04-02T15:24:04.121Z,11.10
2023-04-02T15:26:30.545Z,10.96
2023-04-02T15:29:15.828Z,11.02
2023-04-02T15:31:51.304Z,10.95
2023-04-02T15:34:20.535Z,11.05
2023-04-02T15:37:07.572Z,10.97
2023-04-02T15:40:00.260Z,11.02
2023-04-02T15:42:34.349Z,10.91
2023-04-02T15:45:07.018Z,10.81
2023-04-02T15:47:36.933Z,10.82
2023-04-02T15:50:22.052Z,10.74
2023-04-02T15:52:59.038Z,10.81
2023-04-02T15:55:49.277Z,10.75
2023-04-02T15:58:55.560Z,10.69
2023-04-02T16:01:43.693Z,10.61
2023-04-02T16:04:28.963Z,10.62
2023-04-02T16:07:14.252Z,10.62
2023-04-02T16:10:00.265Z,10.72
2023-04-02T16:12:29.445Z,10.65
2023-04-02T16:15:02.950Z,10.54
2023-04-02T16:17:36.138Z,10.48
2023-04-02T16:20:39.634Z,10.64
2023-04-02T16:23:20.413Z,10.52
2023-04-02T16:25:52.787Z,10.42
2023-04-02T16:28:40.763Z,10.43
2023-04-02T16:31:22.465Z,10.39
2023-04-02T16:34:06.984Z,10.35
2023-04-02T16:36:52.712Z,10.29
2023-04-02T16:39:22.026Z,10.18
2023-04-02T16:42:03.402Z,10.18
2023-04-02T16:44:29.906Z,10.14
2023-04-02T16:47:05.733Z,10.17
2023-04-02T16:49:35.295Z,10.05
2023-04-02T16:52:20.185Z,9.92
2023-04-02T16:55:05.078Z,9.91
2023-04-02T16:57:43.458Z,9.97
2023-04-02T17:00:37.729Z,9.91
2023-04-02T17:03:43.358Z,9.95
2023-04-02T17:06:30.964Z,9.94
2023-04-02T17:09:39.116Z,9.80
2023-04-02T17:12:20.398Z,9.72
2023-04-02T17:14:59.431Z,9.84
2023-04-02T17:17:26.126Z,9.74
2023-04-02T17:19:58.609Z,9.70
2023-04-02T17:22:25.207Z,9.65
2023-04-02T17:24:55.757Z,9.59
2023-04-02T17:27:35.474Z,9.55
2023-04-02T17:30:15.506Z,9.52
2023-04-02T17:32:42.015Z,9.40
2023-04-02T17:35:26.861Z,9.46
2023-04-02T17:38:08.252Z,9.49
2023-04-02T17:40:58.448Z,9.40
2023-04-02T17:43:42.465Z,9.39
2023-04-02T17:46:36.633Z,9.35
2023-04-02T17:49:38.140Z,9.42
2023-04-02T17:52:22.179Z,9.31
2023-04-02T17:55:04.508Z,9.32
2023-04-02T17:57:58.561Z,9.31
2023-04-02T18:00:46.377Z,9.30
2023-04-02T18:03:42.401Z,9.31
2023-04-02T18:06:31.793Z,9.24
2023-04-02T18:09:17.663Z,9.27
2023-04-02T18:11:50.672Z,9.16
2023-04-02T18:14:46.413Z,9.22
2023-04-02T18:17:52.992Z,9.11
2023-04-02T18:20:38.368Z,9.11
2023-04-02T18:23:19.889Z,9.01
2023-04-02T18:26:02.099Z,8.88
2023-04-02T18:28:44.421Z,8.91
2023-04-02T18:31:27.212Z,8.85
2023-04-02T18:34:25.788Z,8.80
2023-04-02T18:37:13.808Z,8.80
2023-04-02T18:40:11.213Z,8.69
2023-04-02T18:42:40.406Z,8.62
2023-04-02T18:45:13.993Z,8.62
2023-04-02T18:47:43.631Z,8.70
2023-04-02T18:50:35.168Z,8.60
2023-04-02T18:53:13.633Z,8.56
2023-04-02T18:55:46.237Z,8.54
2023-04-02T18:58:24.730Z,8.56
2023-04-02T19:00:53.794Z,8.45
2023-04-02T19:03:27.982Z,8.38
2023-04-02T19:06:17.598Z,8.34
2023-04-02T19:08:53.923Z,8.30
2023-04-02T19:11:23.083Z,8.22
2023-04-02T19:13:49.806Z,8.28
2023-04-02T19:16:48.837Z,8.15
2023-04-02T19:19:29.076Z,8.16
2023-04-02T19:22:35.125Z,8.15
2023-04-02T19:25:26.628Z,7.99
2023-04-02T19:28:00.669Z,8.03
2023-04-02T19:30:42.932Z,8.02
2023-04-02T19:33:27.536Z,8.08
2023-04-02T19:36:00.516Z,8.13
2023-04-02T19:38:59.620Z,8.11
2023-04-02T19:41:31.824Z,8.11
2023-04-02T19:43:58.698Z,8.17
2023-04-02T19:46:26.491Z,8.19
2023-04-02T19:49:14.289Z,8.27
2023-04-02T19:51:40.809Z,8.27
2023-04-02T19:54:07.271Z,8.31
2023-04-02T19:56:33.797Z,8.20
2023-04-02T19:59:07.720Z,8.19
2023-04-02T20:01:43.461Z,8.17
2023-04-02T20:04:10.022Z,8.11
2023-04-02T20:06:36.644Z,8.08
2023-04-02T20:09:03.697Z,8.06
2023-04-02T20:11:30.232Z,8.04
2023-04-02T20:13:56.787Z,7.99
2023-04-02T20:16:23.537Z,7.95
2023-04-02T20:18:51.108Z,7.92
2023-04-02T20:21:17.616Z,7.93
2023-04-02T20:23:44.087Z,7.97
2023-04-02T20:26:10.950Z,8.06
2023-04-02T20:28:37.478Z,8.10
2023-04-02T20:31:16.634Z,8.17
2023-04-02T20:33:43.799Z,8.26
2023-04-02T20:36:13.477Z,8.39
2023-04-02T20:38:40.527Z,8.38
2023-04-02T20:41:07.887Z,8.42
2023-04-02T20:43:34.793Z,8.44
2023-04-02T20:46:03.851Z,8.44
2023-04-02T20:48:31.596Z,8.41
2023-04-02T20:51:00.155Z,8.38
2023-04-02T20:53:29.272Z,8.39
2023-04-02T20:56:15.899Z,8.33
2023-04-02T20:58:43.462Z,8.29
2023-04-02T21:01:25.937Z,8.25
2023-04-02T21:04:03.120Z,8.23
2023-04-02T21:06:31.735Z,8.23
2023-04-02T21:08:58.977Z,8.21
2023-04-02T21:11:25.509Z,8.17
2023-04-02T21:13:52.483Z,8.19
2023-04-02T21:16:24.099Z,8.22
2023-04-02T21:18:52.306Z,8.20
2023-04-02T21:21:20.315Z,8.13
2023-04-02T21:23:47.433Z,8.20
2023-04-02T21:26:16.735Z,8.16
2023-04-02T21:28:44.873Z,8.18
2023-04-02T21:31:16.617Z,8.20
2023-04-02T21:33:54.283Z,8.15
2023-04-02T21:36:22.529Z,8.05
2023-04-02T21:38:51.867Z,8.00
2023-04-02T21:41:23.841Z,7.94
2023-04-02T21:43:50.740Z,7.94
2023-04-02T21:46:21.523Z,7.95
2023-04-02T21:48:49.820Z,8.04
2023-04-02T21:51:19.276Z,7.88
2023-04-02T21:53:45.867Z,7.87
2023-04-02T21:56:17.988Z,7.89
2023-04-02T21:58:45.985Z,7.91
2023-04-02T22:01:23.797Z,7.86
2023-04-02T22:03:54.639Z,7.84
2023-04-02T22:06:22.727Z,7.76
2023-04-02T22:08:57.976Z,7.71
2023-04-02T22:11:27.709Z,7.46
2023-04-02T22:13:54.495Z,7.40
2023-04-02T22:16:23.776Z,7.36
2023-04-02T22:18:52.229Z,7.39
2023-04-02T22:21:19.633Z,7.36
2023-04-02T22:23:47.275Z,7.28
2023-04-02T22:26:16.071Z,7.17
2023-04-02T22:28:42.872Z,7.13
2023-04-02T22:31:16.028Z,7.04
2023-04-02T22:33:44.995Z,6.84
2023-04-02T22:36:12.685Z,6.74
2023-04-02T22:38:41.955Z,6.77
2023-04-02T22:41:13.804Z,6.90
2023-04-02T22:43:42.215Z,7.01
2023-04-02T22:46:09.793Z,7.11
2023-04-02T22:48:36.768Z,7.18
2023-04-02T22:51:03.394Z,7.25
2023-04-02T22:53:29.923Z,7.28
2023-04-02T22:56:02.512Z,7.31
2023-04-02T22:58:29.097Z,7.31
2023-04-02T23:00:55.570Z,7.26
2023-04-02T23:03:22.079Z,7.24
2023-04-02T23:05:58.998Z,7.31
2023-04-02T23:08:25.563Z,7.25
2023-04-02T23:11:01.016Z,7.29
2023-04-02T23:13:28.150Z,7.28
2023-04-02T23:15:54.873Z,7.24
2023-04-02T23:18:23.181Z,7.26
2023-04-02T23:20:49.656Z,7.25
2023-04-02T23:23:16.119Z,7.26
2023-04-02T23:25:42.671Z,7.25
2023-04-02T23:28:10.422Z,7.26
2023-04-02T23:30:37.157Z,7.29
2023-04-02T23:33:04.832Z,7.30
2023-04-02T23:35:31.378Z,7.31
2023-04-02T23:37:57.891Z,7.29
2023-04-02T23:40:24.420Z,7.26
2023-04-02T23:42:50.911Z,7.25
2023-04-02T23:45:17.377Z,7.25
2023-04-02T23:47:43.915Z,7.13
2023-04-02T23:50:10.777Z,7.10
2023-04-02T23:52:37.300Z,7.03
2023-04-02T23:55:04.063Z,6.99
2023-04-02T23:57:30.600Z,6.89
2023-04-02T23:59:57.192Z,6.75
